sensor_id;sensor_type;location;lat;lon;timestamp;P1;durP1;ratioP1;P2;durP2;ratioP2
82948;SDS011;72736;50.236;18.876;2023-09-19T00:03:00;15.30;;;11.10;;
82948;SDS011;72736;50.236;18.876;2023-09-19T00:08:07;17.20;;;11.60;;
82948;SDS011;72736;50.236;18.876;2023-09-19T00:13:12;17.00;;;11.60;;
82948;SDS011;72736;50.236;18.876;2023-09-19T00:18:19;16.20;;;11.20;;
82948;SDS011;72736;50.236;18.876;2023-09-19T00:23:26;15.90;;;10.90;;
82948;SDS011;72736;50.236;18.876;2023-09-19T00:28:32;16.00;;;11.40;;
82948;SDS011;72736;50.236;18.876;2023-09-19T00:33:38;16.40;;;10.90;;
82948;SDS011;72736;50.236;18.876;2023-09-19T00:38:44;19.90;;;11.80;;
82948;SDS011;72736;50.236;18.876;2023-09-19T00:43:49;17.80;;;11.30;;
82948;SDS011;72736;50.236;18.876;2023-09-19T00:48:55;17.70;;;11.40;;
82948;SDS011;72736;50.236;18.876;2023-09-19T00:54:01;14.40;;;10.70;;
82948;SDS011;72736;50.236;18.876;2023-09-19T00:59:08;17.40;;;11.60;;
82948;SDS011;72736;50.236;18.876;2023-09-19T01:04:14;17.50;;;12.10;;
82948;SDS011;72736;50.236;18.876;2023-09-19T01:09:21;16.80;;;10.70;;
82948;SDS011;72736;50.236;18.876;2023-09-19T01:14:36;18.70;;;11.00;;
82948;SDS011;72736;50.236;18.876;2023-09-19T01:19:55;15.60;;;10.60;;
82948;SDS011;72736;50.236;18.876;2023-09-19T01:25:28;17.10;;;10.80;;
82948;SDS011;72736;50.236;18.876;2023-09-19T01:30:47;15.90;;;10.60;;
82948;SDS011;72736;50.236;18.876;2023-09-19T01:36:00;16.90;;;11.00;;
82948;SDS011;72736;50.236;18.876;2023-09-19T01:41:09;16.30;;;11.50;;
82948;SDS011;72736;50.236;18.876;2023-09-19T01:46:24;16.70;;;11.40;;
82948;SDS011;72736;50.236;18.876;2023-09-19T01:51:37;18.80;;;12.00;;
82948;SDS011;72736;50.236;18.876;2023-09-19T01:56:50;17.80;;;11.90;;
82948;SDS011;72736;50.236;18.876;2023-09-19T02:02:02;20.60;;;11.40;;
82948;SDS011;72736;50.236;18.876;2023-09-19T02:07:10;16.60;;;11.30;;
82948;SDS011;72736;50.236;18.876;2023-09-19T02:12:18;15.30;;;10.80;;
82948;SDS011;72736;50.236;18.876;2023-09-19T02:17:24;16.10;;;11.70;;
82948;SDS011;72736;50.236;18.876;2023-09-19T02:22:30;15.30;;;10.80;;
82948;SDS011;72736;50.236;18.876;2023-09-19T02:27:35;16.00;;;10.90;;
82948;SDS011;72736;50.236;18.876;2023-09-19T02:32:42;18.30;;;11.30;;
82948;SDS011;72736;50.236;18.876;2023-09-19T02:37:49;21.70;;;11.60;;
82948;SDS011;72736;50.236;18.876;2023-09-19T02:42:55;17.50;;;11.90;;
82948;SDS011;72736;50.236;18.876;2023-09-19T02:48:02;16.30;;;11.20;;
82948;SDS011;72736;50.236;18.876;2023-09-19T02:53:10;16.00;;;11.30;;
82948;SDS011;72736;50.236;18.876;2023-09-19T02:58:16;16.70;;;10.70;;
82948;SDS011;72736;50.236;18.876;2023-09-19T03:03:22;16.00;;;10.70;;
82948;SDS011;72736;50.236;18.876;2023-09-19T03:08:31;17.40;;;11.40;;
82948;SDS011;72736;50.236;18.876;2023-09-19T03:13:38;21.30;;;11.30;;
82948;SDS011;72736;50.236;18.876;2023-09-19T03:18:45;18.80;;;12.40;;
82948;SDS011;72736;50.236;18.876;2023-09-19T03:23:51;18.00;;;11.50;;
82948;SDS011;72736;50.236;18.876;2023-09-19T03:28:57;17.00;;;11.30;;
82948;SDS011;72736;50.236;18.876;2023-09-19T03:34:03;16.80;;;11.40;;
82948;SDS011;72736;50.236;18.876;2023-09-19T03:39:08;18.20;;;12.00;;
82948;SDS011;72736;50.236;18.876;2023-09-19T03:44:14;16.80;;;11.60;;
82948;SDS011;72736;50.236;18.876;2023-09-19T03:49:20;19.60;;;12.00;;
82948;SDS011;72736;50.236;18.876;2023-09-19T03:54:26;18.10;;;12.20;;
82948;SDS011;72736;50.236;18.876;2023-09-19T03:59:31;17.20;;;11.60;;
82948;SDS011;72736;50.236;18.876;2023-09-19T04:04:38;18.00;;;12.50;;
82948;SDS011;72736;50.236;18.876;2023-09-19T04:09:44;16.90;;;11.90;;
82948;SDS011;72736;50.236;18.876;2023-09-19T04:14:51;18.30;;;11.60;;
82948;SDS011;72736;50.236;18.876;2023-09-19T04:19:57;16.90;;;12.00;;
82948;SDS011;72736;50.236;18.876;2023-09-19T04:25:03;19.20;;;12.30;;
82948;SDS011;72736;50.236;18.876;2023-09-19T04:30:11;18.70;;;13.00;;
82948;SDS011;72736;50.236;18.876;2023-09-19T04:35:17;28.80;;;18.70;;
82948;SDS011;72736;50.236;18.876;2023-09-19T04:40:23;21.30;;;13.10;;
82948;SDS011;72736;50.236;18.876;2023-09-19T04:45:30;23.90;;;15.40;;
82948;SDS011;72736;50.236;18.876;2023-09-19T04:50:35;21.80;;;14.20;;
82948;SDS011;72736;50.236;18.876;2023-09-19T04:55:41;23.00;;;14.60;;
82948;SDS011;72736;50.236;18.876;2023-09-19T05:00:47;23.70;;;14.00;;
82948;SDS011;72736;50.236;18.876;2023-09-19T05:05:54;22.70;;;14.00;;
82948;SDS011;72736;50.236;18.876;2023-09-19T05:10:59;20.60;;;14.00;;
82948;SDS011;72736;50.236;18.876;2023-09-19T05:16:07;26.00;;;14.20;;
82948;SDS011;72736;50.236;18.876;2023-09-19T05:21:13;21.50;;;15.90;;
82948;SDS011;72736;50.236;18.876;2023-09-19T05:26:20;24.10;;;14.10;;
82948;SDS011;72736;50.236;18.876;2023-09-19T05:31:25;24.10;;;14.20;;
82948;SDS011;72736;50.236;18.876;2023-09-19T05:36:32;22.00;;;13.90;;
82948;SDS011;72736;50.236;18.876;2023-09-19T05:41:37;27.00;;;16.50;;
82948;SDS011;72736;50.236;18.876;2023-09-19T05:46:44;26.20;;;14.20;;
82948;SDS011;72736;50.236;18.876;2023-09-19T05:51:51;24.00;;;14.60;;
82948;SDS011;72736;50.236;18.876;2023-09-19T05:56:58;22.20;;;13.50;;
82948;SDS011;72736;50.236;18.876;2023-09-19T06:02:04;19.40;;;12.20;;
82948;SDS011;72736;50.236;18.876;2023-09-19T06:07:12;20.00;;;12.00;;
82948;SDS011;72736;50.236;18.876;2023-09-19T06:12:19;18.20;;;11.90;;
82948;SDS011;72736;50.236;18.876;2023-09-19T06:17:25;17.40;;;10.50;;
82948;SDS011;72736;50.236;18.876;2023-09-19T06:22:31;13.60;;;8.20;;
82948;SDS011;72736;50.236;18.876;2023-09-19T06:27:37;13.20;;;7.40;;
82948;SDS011;72736;50.236;18.876;2023-09-19T06:32:44;12.70;;;6.50;;
82948;SDS011;72736;50.236;18.876;2023-09-19T06:37:51;10.40;;;5.80;;
82948;SDS011;72736;50.236;18.876;2023-09-19T06:42:57;10.20;;;4.70;;
82948;SDS011;72736;50.236;18.876;2023-09-19T06:48:05;9.90;;;5.30;;
82948;SDS011;72736;50.236;18.876;2023-09-19T06:53:13;7.80;;;4.00;;
82948;SDS011;72736;50.236;18.876;2023-09-19T06:58:19;8.30;;;4.80;;
82948;SDS011;72736;50.236;18.876;2023-09-19T07:03:25;8.50;;;3.90;;
82948;SDS011;72736;50.236;18.876;2023-09-19T07:08:32;6.40;;;3.90;;
82948;SDS011;72736;50.236;18.876;2023-09-19T07:13:37;7.50;;;3.40;;
82948;SDS011;72736;50.236;18.876;2023-09-19T07:18:44;8.20;;;3.60;;
82948;SDS011;72736;50.236;18.876;2023-09-19T07:23:49;7.50;;;3.70;;
82948;SDS011;72736;50.236;18.876;2023-09-19T07:28:55;7.10;;;3.30;;
82948;SDS011;72736;50.236;18.876;2023-09-19T07:34:01;6.90;;;3.10;;
82948;SDS011;72736;50.236;18.876;2023-09-19T07:39:08;9.00;;;3.20;;
82948;SDS011;72736;50.236;18.876;2023-09-19T07:44:24;6.60;;;2.90;;
82948;SDS011;72736;50.236;18.876;2023-09-19T07:49:30;7.20;;;3.60;;
82948;SDS011;72736;50.236;18.876;2023-09-19T07:54:36;7.30;;;3.10;;
82948;SDS011;72736;50.236;18.876;2023-09-19T07:59:46;8.20;;;4.00;;
82948;SDS011;72736;50.236;18.876;2023-09-19T08:04:52;9.00;;;3.60;;
82948;SDS011;72736;50.236;18.876;2023-09-19T08:09:58;9.00;;;3.70;;
82948;SDS011;72736;50.236;18.876;2023-09-19T08:15:04;5.10;;;3.10;;
82948;SDS011;72736;50.236;18.876;2023-09-19T08:20:12;6.30;;;3.50;;
82948;SDS011;72736;50.236;18.876;2023-09-19T08:25:20;5.60;;;3.30;;
82948;SDS011;72736;50.236;18.876;2023-09-19T08:30:28;5.00;;;3.10;;
82948;SDS011;72736;50.236;18.876;2023-09-19T08:35:34;7.60;;;3.50;;
82948;SDS011;72736;50.236;18.876;2023-09-19T08:40:42;7.60;;;4.30;;
82948;SDS011;72736;50.236;18.876;2023-09-19T08:45:48;8.00;;;3.80;;
82948;SDS011;72736;50.236;18.876;2023-09-19T08:50:58;5.30;;;3.20;;
82948;SDS011;72736;50.236;18.876;2023-09-19T08:56:10;5.60;;;3.20;;
82948;SDS011;72736;50.236;18.876;2023-09-19T09:01:18;6.10;;;3.30;;
82948;SDS011;72736;50.236;18.876;2023-09-19T09:06:29;4.90;;;3.10;;
82948;SDS011;72736;50.236;18.876;2023-09-19T09:11:35;7.00;;;3.40;;
82948;SDS011;72736;50.236;18.876;2023-09-19T09:16:43;5.70;;;2.90;;
82948;SDS011;72736;50.236;18.876;2023-09-19T09:21:49;5.30;;;3.10;;
82948;SDS011;72736;50.236;18.876;2023-09-19T09:26:55;5.10;;;3.10;;
82948;SDS011;72736;50.236;18.876;2023-09-19T09:32:01;6.10;;;3.10;;
82948;SDS011;72736;50.236;18.876;2023-09-19T09:37:22;5.50;;;3.10;;
82948;SDS011;72736;50.236;18.876;2023-09-19T09:42:33;5.80;;;2.70;;
82948;SDS011;72736;50.236;18.876;2023-09-19T09:47:42;5.70;;;2.70;;
82948;SDS011;72736;50.236;18.876;2023-09-19T09:52:58;6.70;;;2.80;;
82948;SDS011;72736;50.236;18.876;2023-09-19T09:58:19;8.10;;;3.10;;
82948;SDS011;72736;50.236;18.876;2023-09-19T10:03:33;5.60;;;2.70;;
82948;SDS011;72736;50.236;18.876;2023-09-19T10:08:58;6.30;;;2.80;;
82948;SDS011;72736;50.236;18.876;2023-09-19T10:19:30;4.50;;;2.50;;
82948;SDS011;72736;50.236;18.876;2023-09-19T10:24:40;5.90;;;3.50;;
82948;SDS011;72736;50.236;18.876;2023-09-19T10:30:04;5.50;;;2.90;;
82948;SDS011;72736;50.236;18.876;2023-09-19T10:35:12;5.90;;;3.10;;
82948;SDS011;72736;50.236;18.876;2023-09-19T10:40:21;7.30;;;3.10;;
82948;SDS011;72736;50.236;18.876;2023-09-19T10:45:33;8.00;;;3.50;;
82948;SDS011;72736;50.236;18.876;2023-09-19T10:50:45;5.50;;;3.40;;
82948;SDS011;72736;50.236;18.876;2023-09-19T10:55:55;7.20;;;3.60;;
82948;SDS011;72736;50.236;18.876;2023-09-19T11:01:03;8.10;;;3.50;;
82948;SDS011;72736;50.236;18.876;2023-09-19T11:06:15;7.90;;;3.80;;
82948;SDS011;72736;50.236;18.876;2023-09-19T11:11:45;6.50;;;3.70;;
82948;SDS011;72736;50.236;18.876;2023-09-19T11:22:47;7.00;;;3.20;;
82948;SDS011;72736;50.236;18.876;2023-09-19T11:28:34;5.50;;;3.10;;
82948;SDS011;72736;50.236;18.876;2023-09-19T11:33:42;6.40;;;3.20;;
82948;SDS011;72736;50.236;18.876;2023-09-19T11:38:59;6.60;;;3.40;;
82948;SDS011;72736;50.236;18.876;2023-09-19T11:49:44;7.70;;;3.30;;
82948;SDS011;72736;50.236;18.876;2023-09-19T11:54:55;6.20;;;3.30;;
82948;SDS011;72736;50.236;18.876;2023-09-19T12:00:01;7.80;;;4.00;;
82948;SDS011;72736;50.236;18.876;2023-09-19T12:05:11;6.90;;;3.40;;
82948;SDS011;72736;50.236;18.876;2023-09-19T12:10:18;7.10;;;3.80;;
82948;SDS011;72736;50.236;18.876;2023-09-19T12:15:26;8.00;;;4.20;;
82948;SDS011;72736;50.236;18.876;2023-09-19T12:20:44;8.30;;;3.90;;
82948;SDS011;72736;50.236;18.876;2023-09-19T12:25:53;7.90;;;3.70;;
82948;SDS011;72736;50.236;18.876;2023-09-19T12:31:07;6.70;;;3.90;;
82948;SDS011;72736;50.236;18.876;2023-09-19T12:36:21;6.10;;;3.40;;
82948;SDS011;72736;50.236;18.876;2023-09-19T12:41:33;6.70;;;3.40;;
82948;SDS011;72736;50.236;18.876;2023-09-19T12:46:38;8.10;;;3.70;;
82948;SDS011;72736;50.236;18.876;2023-09-19T12:51:45;5.90;;;3.70;;
82948;SDS011;72736;50.236;18.876;2023-09-19T12:56:52;5.10;;;3.50;;
82948;SDS011;72736;50.236;18.876;2023-09-19T13:02:04;6.30;;;3.30;;
82948;SDS011;72736;50.236;18.876;2023-09-19T13:12:48;6.50;;;3.30;;
82948;SDS011;72736;50.236;18.876;2023-09-19T13:17:54;6.20;;;3.20;;
82948;SDS011;72736;50.236;18.876;2023-09-19T13:23:05;6.30;;;3.70;;
82948;SDS011;72736;50.236;18.876;2023-09-19T13:28:29;6.30;;;3.90;;
82948;SDS011;72736;50.236;18.876;2023-09-19T13:33:35;6.10;;;3.30;;
82948;SDS011;72736;50.236;18.876;2023-09-19T13:38:48;6.80;;;3.50;;
82948;SDS011;72736;50.236;18.876;2023-09-19T13:43:56;8.40;;;4.00;;
82948;SDS011;72736;50.236;18.876;2023-09-19T13:49:01;6.70;;;3.70;;
82948;SDS011;72736;50.236;18.876;2023-09-19T13:54:08;6.40;;;3.20;;
82948;SDS011;72736;50.236;18.876;2023-09-19T13:59:15;7.40;;;3.10;;
82948;SDS011;72736;50.236;18.876;2023-09-19T14:04:21;6.30;;;2.80;;
82948;SDS011;72736;50.236;18.876;2023-09-19T14:09:27;5.90;;;3.20;;
82948;SDS011;72736;50.236;18.876;2023-09-19T14:14:33;6.60;;;2.70;;
82948;SDS011;72736;50.236;18.876;2023-09-19T14:19:40;6.20;;;3.00;;
82948;SDS011;72736;50.236;18.876;2023-09-19T14:24:48;4.20;;;2.60;;
82948;SDS011;72736;50.236;18.876;2023-09-19T14:29:54;5.70;;;2.50;;
82948;SDS011;72736;50.236;18.876;2023-09-19T14:35:00;4.30;;;2.10;;
82948;SDS011;72736;50.236;18.876;2023-09-19T14:40:07;4.60;;;2.10;;
82948;SDS011;72736;50.236;18.876;2023-09-19T14:45:13;4.90;;;2.40;;
82948;SDS011;72736;50.236;18.876;2023-09-19T14:50:21;4.70;;;2.20;;
82948;SDS011;72736;50.236;18.876;2023-09-19T14:55:27;6.00;;;2.20;;
82948;SDS011;72736;50.236;18.876;2023-09-19T15:00:37;5.30;;;2.40;;
82948;SDS011;72736;50.236;18.876;2023-09-19T15:05:43;5.50;;;2.30;;
82948;SDS011;72736;50.236;18.876;2023-09-19T15:10:50;5.80;;;2.10;;
82948;SDS011;72736;50.236;18.876;2023-09-19T15:15:59;4.70;;;2.20;;
82948;SDS011;72736;50.236;18.876;2023-09-19T15:21:06;4.90;;;1.80;;
82948;SDS011;72736;50.236;18.876;2023-09-19T15:26:13;4.00;;;2.00;;
82948;SDS011;72736;50.236;18.876;2023-09-19T15:31:24;4.20;;;1.80;;
82948;SDS011;72736;50.236;18.876;2023-09-19T15:36:30;5.00;;;2.00;;
82948;SDS011;72736;50.236;18.876;2023-09-19T15:41:36;5.70;;;2.30;;
82948;SDS011;72736;50.236;18.876;2023-09-19T15:46:43;6.20;;;2.30;;
82948;SDS011;72736;50.236;18.876;2023-09-19T15:51:50;7.30;;;2.10;;
82948;SDS011;72736;50.236;18.876;2023-09-19T15:56:56;5.80;;;2.40;;
82948;SDS011;72736;50.236;18.876;2023-09-19T16:02:03;5.20;;;2.80;;
82948;SDS011;72736;50.236;18.876;2023-09-19T16:07:09;5.30;;;2.30;;
82948;SDS011;72736;50.236;18.876;2023-09-19T16:12:14;5.60;;;2.90;;
82948;SDS011;72736;50.236;18.876;2023-09-19T16:17:20;5.40;;;2.50;;
82948;SDS011;72736;50.236;18.876;2023-09-19T16:22:31;5.20;;;2.80;;
82948;SDS011;72736;50.236;18.876;2023-09-19T16:27:37;4.70;;;2.90;;
82948;SDS011;72736;50.236;18.876;2023-09-19T16:32:42;4.70;;;2.80;;
82948;SDS011;72736;50.236;18.876;2023-09-19T16:37:48;4.50;;;2.70;;
82948;SDS011;72736;50.236;18.876;2023-09-19T16:42:55;5.40;;;2.80;;
82948;SDS011;72736;50.236;18.876;2023-09-19T16:48:00;5.30;;;2.80;;
82948;SDS011;72736;50.236;18.876;2023-09-19T16:53:06;4.70;;;2.50;;
82948;SDS011;72736;50.236;18.876;2023-09-19T16:58:13;4.80;;;2.90;;
82948;SDS011;72736;50.236;18.876;2023-09-19T17:03:20;5.60;;;3.10;;
82948;SDS011;72736;50.236;18.876;2023-09-19T17:08:27;4.90;;;2.90;;
82948;SDS011;72736;50.236;18.876;2023-09-19T17:13:34;5.30;;;3.20;;
82948;SDS011;72736;50.236;18.876;2023-09-19T17:18:40;5.40;;;3.10;;
82948;SDS011;72736;50.236;18.876;2023-09-19T17:23:47;6.90;;;3.30;;
82948;SDS011;72736;50.236;18.876;2023-09-19T17:28:55;7.50;;;4.00;;
82948;SDS011;72736;50.236;18.876;2023-09-19T17:34:01;6.80;;;4.00;;
82948;SDS011;72736;50.236;18.876;2023-09-19T17:39:07;5.90;;;3.60;;
82948;SDS011;72736;50.236;18.876;2023-09-19T17:44:17;9.00;;;4.80;;
82948;SDS011;72736;50.236;18.876;2023-09-19T17:49:23;9.20;;;4.90;;
82948;SDS011;72736;50.236;18.876;2023-09-19T17:54:28;17.30;;;8.70;;
82948;SDS011;72736;50.236;18.876;2023-09-19T17:59:35;6.70;;;4.20;;
82948;SDS011;72736;50.236;18.876;2023-09-19T18:04:41;7.30;;;4.20;;
82948;SDS011;72736;50.236;18.876;2023-09-19T18:09:46;7.00;;;4.80;;
82948;SDS011;72736;50.236;18.876;2023-09-19T18:14:52;9.90;;;6.10;;
82948;SDS011;72736;50.236;18.876;2023-09-19T18:19:58;8.40;;;4.50;;
82948;SDS011;72736;50.236;18.876;2023-09-19T18:25:04;7.50;;;3.40;;
82948;SDS011;72736;50.236;18.876;2023-09-19T18:30:11;4.60;;;2.60;;
82948;SDS011;72736;50.236;18.876;2023-09-19T18:35:18;4.60;;;2.50;;
82948;SDS011;72736;50.236;18.876;2023-09-19T18:40:26;6.40;;;3.20;;
82948;SDS011;72736;50.236;18.876;2023-09-19T18:45:32;7.00;;;3.40;;
82948;SDS011;72736;50.236;18.876;2023-09-19T18:55:47;5.50;;;3.00;;
82948;SDS011;72736;50.236;18.876;2023-09-19T19:00:58;7.70;;;3.50;;
82948;SDS011;72736;50.236;18.876;2023-09-19T19:06:06;6.80;;;3.50;;
82948;SDS011;72736;50.236;18.876;2023-09-19T19:11:14;8.40;;;4.10;;
82948;SDS011;72736;50.236;18.876;2023-09-19T19:16:22;9.20;;;5.00;;
82948;SDS011;72736;50.236;18.876;2023-09-19T19:21:32;13.00;;;4.10;;
82948;SDS011;72736;50.236;18.876;2023-09-19T19:26:38;7.20;;;3.30;;
82948;SDS011;72736;50.236;18.876;2023-09-19T19:31:44;9.00;;;3.30;;
82948;SDS011;72736;50.236;18.876;2023-09-19T19:36:52;5.90;;;2.80;;
82948;SDS011;72736;50.236;18.876;2023-09-19T19:41:57;5.40;;;3.40;;
82948;SDS011;72736;50.236;18.876;2023-09-19T19:47:04;8.50;;;3.80;;
82948;SDS011;72736;50.236;18.876;2023-09-19T19:52:10;7.90;;;4.00;;
82948;SDS011;72736;50.236;18.876;2023-09-19T19:57:17;8.40;;;4.40;;
82948;SDS011;72736;50.236;18.876;2023-09-19T20:02:23;8.50;;;4.10;;
82948;SDS011;72736;50.236;18.876;2023-09-19T20:07:29;8.80;;;4.50;;
82948;SDS011;72736;50.236;18.876;2023-09-19T20:12:35;8.40;;;4.30;;
82948;SDS011;72736;50.236;18.876;2023-09-19T20:17:41;9.80;;;4.60;;
82948;SDS011;72736;50.236;18.876;2023-09-19T20:22:47;9.00;;;4.90;;
82948;SDS011;72736;50.236;18.876;2023-09-19T20:27:53;8.30;;;4.70;;
82948;SDS011;72736;50.236;18.876;2023-09-19T20:32:59;6.30;;;3.70;;
82948;SDS011;72736;50.236;18.876;2023-09-19T20:38:05;6.90;;;3.80;;
82948;SDS011;72736;50.236;18.876;2023-09-19T20:43:13;8.40;;;4.40;;
82948;SDS011;72736;50.236;18.876;2023-09-19T20:48:19;7.80;;;4.30;;
82948;SDS011;72736;50.236;18.876;2023-09-19T20:53:25;7.40;;;4.50;;
82948;SDS011;72736;50.236;18.876;2023-09-19T20:58:32;7.90;;;4.70;;
82948;SDS011;72736;50.236;18.876;2023-09-19T21:03:39;7.90;;;4.40;;
82948;SDS011;72736;50.236;18.876;2023-09-19T21:08:46;7.50;;;5.10;;
82948;SDS011;72736;50.236;18.876;2023-09-19T21:13:52;10.00;;;5.80;;
82948;SDS011;72736;50.236;18.876;2023-09-19T21:18:58;9.00;;;5.00;;
82948;SDS011;72736;50.236;18.876;2023-09-19T21:24:07;9.40;;;4.60;;
82948;SDS011;72736;50.236;18.876;2023-09-19T21:29:15;9.40;;;5.60;;
82948;SDS011;72736;50.236;18.876;2023-09-19T21:34:21;9.80;;;5.50;;
82948;SDS011;72736;50.236;18.876;2023-09-19T21:44:31;9.60;;;6.30;;
82948;SDS011;72736;50.236;18.876;2023-09-19T21:49:36;9.50;;;5.90;;
82948;SDS011;72736;50.236;18.876;2023-09-19T21:54:42;12.80;;;7.30;;
82948;SDS011;72736;50.236;18.876;2023-09-19T21:59:48;11.60;;;6.50;;
82948;SDS011;72736;50.236;18.876;2023-09-19T22:04:54;10.80;;;6.10;;
82948;SDS011;72736;50.236;18.876;2023-09-19T22:10:01;10.50;;;6.00;;
82948;SDS011;72736;50.236;18.876;2023-09-19T22:15:08;11.40;;;6.10;;
82948;SDS011;72736;50.236;18.876;2023-09-19T22:20:15;10.20;;;6.10;;
82948;SDS011;72736;50.236;18.876;2023-09-19T22:25:28;9.20;;;5.90;;
82948;SDS011;72736;50.236;18.876;2023-09-19T22:30:39;10.00;;;6.00;;
82948;SDS011;72736;50.236;18.876;2023-09-19T22:35:50;9.00;;;5.30;;
82948;SDS011;72736;50.236;18.876;2023-09-19T22:41:07;9.30;;;5.50;;
82948;SDS011;72736;50.236;18.876;2023-09-19T22:46:14;11.00;;;5.50;;
82948;SDS011;72736;50.236;18.876;2023-09-19T22:51:24;10.80;;;5.50;;
82948;SDS011;72736;50.236;18.876;2023-09-19T22:56:40;9.30;;;5.20;;
82948;SDS011;72736;50.236;18.876;2023-09-19T23:06:52;11.30;;;5.30;;
82948;SDS011;72736;50.236;18.876;2023-09-19T23:12:03;10.60;;;5.80;;
82948;SDS011;72736;50.236;18.876;2023-09-19T23:17:13;10.60;;;5.70;;
82948;SDS011;72736;50.236;18.876;2023-09-19T23:22:25;12.10;;;6.30;;
82948;SDS011;72736;50.236;18.876;2023-09-19T23:27:31;9.40;;;5.70;;
82948;SDS011;72736;50.236;18.876;2023-09-19T23:32:39;10.20;;;5.50;;
82948;SDS011;72736;50.236;18.876;2023-09-19T23:37:45;8.70;;;5.10;;
82948;SDS011;72736;50.236;18.876;2023-09-19T23:42:51;10.50;;;5.40;;
82948;SDS011;72736;50.236;18.876;2023-09-19T23:48:00;11.80;;;5.20;;
82948;SDS011;72736;50.236;18.876;2023-09-19T23:53:08;9.70;;;5.10;;
82948;SDS011;72736;50.236;18.876;2023-09-19T23:58:15;17.20;;;6.80;;
